sensor_id;sensor_type;location;lat;lon;timestamp;temperature;humidity
36556;DHT22;40859;50.560;7.268;2022-08-19T05:11:01;25.00;98.10
36556;DHT22;40859;50.560;7.268;2022-08-19T05:13:28;25.00;98.00
36556;DHT22;40859;50.560;7.268;2022-08-19T05:15:58;25.00;98.00
36556;DHT22;40859;50.560;7.268;2022-08-19T05:18:24;25.00;98.00
36556;DHT22;40859;50.560;7.268;2022-08-19T05:21:13;25.00;98.10
36556;DHT22;40859;50.560;7.268;2022-08-19T05:23:58;25.00;98.00
36556;DHT22;40859;50.560;7.268;2022-08-19T05:26:25;25.00;98.10
36556;DHT22;40859;50.560;7.268;2022-08-19T05:28:52;24.90;98.10
36556;DHT22;40859;50.560;7.268;2022-08-19T05:31:19;24.90;98.10
36556;DHT22;40859;50.560;7.268;2022-08-19T05:33:45;24.90;98.10
36556;DHT22;40859;50.560;7.268;2022-08-19T05:36:11;25.00;98.10
36556;DHT22;40859;50.560;7.268;2022-08-19T05:38:37;25.00;98.10
36556;DHT22;40859;50.560;7.268;2022-08-19T05:41:21;25.00;98.10
36556;DHT22;40859;50.560;7.268;2022-08-19T05:43:58;25.00;98.10
36556;DHT22;40859;50.560;7.268;2022-08-19T05:46:26;25.00;98.10
36556;DHT22;40859;50.560;7.268;2022-08-19T05:48:52;25.00;98.10
36556;DHT22;40859;50.560;7.268;2022-08-19T05:51:19;24.90;98.10
36556;DHT22;40859;50.560;7.268;2022-08-19T05:53:45;25.00;98.10
36556;DHT22;40859;50.560;7.268;2022-08-19T05:56:14;25.00;98.00
36556;DHT22;40859;50.560;7.268;2022-08-19T05:58:41;25.00;98.10
36556;DHT22;40859;50.560;7.268;2022-08-19T06:01:16;25.00;98.20
36556;DHT22;40859;50.560;7.268;2022-08-19T06:03:43;24.90;98.20
36556;DHT22;40859;50.560;7.268;2022-08-19T06:06:11;24.90;98.20
36556;DHT22;40859;50.560;7.268;2022-08-19T06:08:37;24.90;98.30
36556;DHT22;40859;50.560;7.268;2022-08-19T06:11:31;24.90;98.40
36556;DHT22;40859;50.560;7.268;2022-08-19T06:14:04;24.90;98.40
36556;DHT22;40859;50.560;7.268;2022-08-19T06:16:30;24.90;98.40
36556;DHT22;40859;50.560;7.268;2022-08-19T06:18:59;24.90;98.40
36556;DHT22;40859;50.560;7.268;2022-08-19T06:21:27;24.90;98.60
36556;DHT22;40859;50.560;7.268;2022-08-19T06:23:55;24.90;98.60
36556;DHT22;40859;50.560;7.268;2022-08-19T06:26:21;24.90;98.60
36556;DHT22;40859;50.560;7.268;2022-08-19T06:28:49;24.90;98.60
36556;DHT22;40859;50.560;7.268;2022-08-19T06:31:18;24.90;98.70
36556;DHT22;40859;50.560;7.268;2022-08-19T06:33:46;24.90;98.70
36556;DHT22;40859;50.560;7.268;2022-08-19T06:36:24;24.90;98.70
36556;DHT22;40859;50.560;7.268;2022-08-19T06:38:58;24.90;98.80
36556;DHT22;40859;50.560;7.268;2022-08-19T06:41:28;24.90;98.80
36556;DHT22;40859;50.560;7.268;2022-08-19T06:43:54;24.90;98.80
36556;DHT22;40859;50.560;7.268;2022-08-19T06:46:21;24.90;98.90
36556;DHT22;40859;50.560;7.268;2022-08-19T06:48:48;24.90;98.90
36556;DHT22;40859;50.560;7.268;2022-08-19T06:51:16;24.90;98.90
36556;DHT22;40859;50.560;7.268;2022-08-19T06:53:46;24.90;99.00
36556;DHT22;40859;50.560;7.268;2022-08-19T06:56:14;24.90;99.00
36556;DHT22;40859;50.560;7.268;2022-08-19T06:58:40;24.90;99.10
36556;DHT22;40859;50.560;7.268;2022-08-19T07:01:07;24.90;99.10
36556;DHT22;40859;50.560;7.268;2022-08-19T07:03:36;24.90;99.40
36556;DHT22;40859;50.560;7.268;2022-08-19T07:06:04;24.90;99.30
36556;DHT22;40859;50.560;7.268;2022-08-19T07:08:31;24.90;99.30
36556;DHT22;40859;50.560;7.268;2022-08-19T07:10:57;24.90;99.40
36556;DHT22;40859;50.560;7.268;2022-08-19T07:13:23;24.90;99.40
36556;DHT22;40859;50.560;7.268;2022-08-19T07:15:50;24.90;99.50
36556;DHT22;40859;50.560;7.268;2022-08-19T07:18:18;24.90;99.60
36556;DHT22;40859;50.560;7.268;2022-08-19T07:20:46;24.90;99.70
36556;DHT22;40859;50.560;7.268;2022-08-19T07:23:12;24.90;99.70
36556;DHT22;40859;50.560;7.268;2022-08-19T07:25:38;24.80;99.60
36556;DHT22;40859;50.560;7.268;2022-08-19T07:28:05;24.90;99.70
36556;DHT22;40859;50.560;7.268;2022-08-19T07:30:35;24.90;99.60
36556;DHT22;40859;50.560;7.268;2022-08-19T07:33:01;24.70;99.90
36556;DHT22;40859;50.560;7.268;2022-08-19T07:35:27;24.70;99.90
36556;DHT22;40859;50.560;7.268;2022-08-19T07:37:54;24.70;99.90
36556;DHT22;40859;50.560;7.268;2022-08-19T07:40:20;24.80;99.90
36556;DHT22;40859;50.560;7.268;2022-08-19T07:42:45;24.80;99.90
36556;DHT22;40859;50.560;7.268;2022-08-19T07:45:11;24.80;99.90
36556;DHT22;40859;50.560;7.268;2022-08-19T07:47:37;24.80;99.90
36556;DHT22;40859;50.560;7.268;2022-08-19T07:50:09;24.80;99.90
36556;DHT22;40859;50.560;7.268;2022-08-19T07:52:37;24.80;99.90
36556;DHT22;40859;50.560;7.268;2022-08-19T07:55:06;24.80;99.90
36556;DHT22;40859;50.560;7.268;2022-08-19T07:57:33;24.80;99.90
36556;DHT22;40859;50.560;7.268;2022-08-19T07:59:58;24.90;99.90
36556;DHT22;40859;50.560;7.268;2022-08-19T08:02:24;24.80;99.90
36556;DHT22;40859;50.560;7.268;2022-08-19T08:04:50;24.90;99.90
36556;DHT22;40859;50.560;7.268;2022-08-19T08:07:35;24.90;99.90
36556;DHT22;40859;50.560;7.268;2022-08-19T08:10:19;24.80;99.90
36556;DHT22;40859;50.560;7.268;2022-08-19T08:12:45;24.80;99.90
36556;DHT22;40859;50.560;7.268;2022-08-19T08:15:13;24.80;99.90
36556;DHT22;40859;50.560;7.268;2022-08-19T08:17:42;24.90;99.90
36556;DHT22;40859;50.560;7.268;2022-08-19T08:20:09;24.90;99.90
36556;DHT22;40859;50.560;7.268;2022-08-19T08:22:35;24.80;99.90
36556;DHT22;40859;50.560;7.268;2022-08-19T08:25:22;24.80;99.90
36556;DHT22;40859;50.560;7.268;2022-08-19T08:27:49;24.90;99.90
36556;DHT22;40859;50.560;7.268;2022-08-19T08:30:21;24.80;99.90
36556;DHT22;40859;50.560;7.268;2022-08-19T08:32:48;24.80;99.90
36556;DHT22;40859;50.560;7.268;2022-08-19T08:35:16;24.80;99.90
36556;DHT22;40859;50.560;7.268;2022-08-19T08:37:43;24.80;99.90
36556;DHT22;40859;50.560;7.268;2022-08-19T08:40:42;24.80;99.90
36556;DHT22;40859;50.560;7.268;2022-08-19T08:43:37;24.80;99.90
36556;DHT22;40859;50.560;7.268;2022-08-19T08:46:10;24.80;99.90
36556;DHT22;40859;50.560;7.268;2022-08-19T08:48:59;24.80;99.90
36556;DHT22;40859;50.560;7.268;2022-08-19T08:51:51;24.80;99.90
36556;DHT22;40859;50.560;7.268;2022-08-19T08:54:20;24.90;99.90
36556;DHT22;40859;50.560;7.268;2022-08-19T08:56:51;24.80;99.90
36556;DHT22;40859;50.560;7.268;2022-08-19T08:59:29;24.90;99.90
36556;DHT22;40859;50.560;7.268;2022-08-19T09:01:59;24.90;99.90
36556;DHT22;40859;50.560;7.268;2022-08-19T09:04:25;24.80;99.90
36556;DHT22;40859;50.560;7.268;2022-08-19T09:07:23;24.80;99.90
36556;DHT22;40859;50.560;7.268;2022-08-19T09:09:57;24.90;99.90
36556;DHT22;40859;50.560;7.268;2022-08-19T09:15:39;24.80;99.90
36556;DHT22;40859;50.560;7.268;2022-08-19T09:18:11;24.80;99.90
36556;DHT22;40859;50.560;7.268;2022-08-19T09:20:37;24.90;99.90
36556;DHT22;40859;50.560;7.268;2022-08-19T09:23:03;24.90;99.90
36556;DHT22;40859;50.560;7.268;2022-08-19T09:25:29;24.90;99.90
36556;DHT22;40859;50.560;7.268;2022-08-19T09:27:57;24.90;99.90
36556;DHT22;40859;50.560;7.268;2022-08-19T09:30:30;24.90;99.90
36556;DHT22;40859;50.560;7.268;2022-08-19T09:32:56;24.90;99.90
36556;DHT22;40859;50.560;7.268;2022-08-19T09:35:25;24.90;99.90
36556;DHT22;40859;50.560;7.268;2022-08-19T09:37:53;24.90;99.90
36556;DHT22;40859;50.560;7.268;2022-08-19T09:40:19;24.90;99.90
36556;DHT22;40859;50.560;7.268;2022-08-19T09:42:45;24.90;99.90
36556;DHT22;40859;50.560;7.268;2022-08-19T09:45:16;24.90;99.90
36556;DHT22;40859;50.560;7.268;2022-08-19T09:47:42;24.90;99.90
36556;DHT22;40859;50.560;7.268;2022-08-19T09:50:11;24.90;99.90
36556;DHT22;40859;50.560;7.268;2022-08-19T09:52:38;24.90;99.90
36556;DHT22;40859;50.560;7.268;2022-08-19T09:55:09;24.90;99.90
36556;DHT22;40859;50.560;7.268;2022-08-19T09:57:35;24.90;99.90
36556;DHT22;40859;50.560;7.268;2022-08-19T10:00:02;25.00;99.90
36556;DHT22;40859;50.560;7.268;2022-08-19T10:02:29;24.90;99.90
36556;DHT22;40859;50.560;7.268;2022-08-19T10:04:55;24.90;99.90
36556;DHT22;40859;50.560;7.268;2022-08-19T10:07:39;25.00;99.90
36556;DHT22;40859;50.560;7.268;2022-08-19T10:10:07;25.00;99.90
36556;DHT22;40859;50.560;7.268;2022-08-19T10:12:35;25.00;99.90
36556;DHT22;40859;50.560;7.268;2022-08-19T10:15:04;25.00;99.90
36556;DHT22;40859;50.560;7.268;2022-08-19T10:17:30;25.00;99.90
36556;DHT22;40859;50.560;7.268;2022-08-19T10:19:58;25.00;99.90
36556;DHT22;40859;50.560;7.268;2022-08-19T10:22:25;25.00;99.90
36556;DHT22;40859;50.560;7.268;2022-08-19T10:24:51;25.00;99.90
36556;DHT22;40859;50.560;7.268;2022-08-19T10:27:17;25.00;99.90
36556;DHT22;40859;50.560;7.268;2022-08-19T10:29:44;25.00;99.90
36556;DHT22;40859;50.560;7.268;2022-08-19T10:32:09;25.00;99.90
36556;DHT22;40859;50.560;7.268;2022-08-19T10:34:39;25.00;99.90
36556;DHT22;40859;50.560;7.268;2022-08-19T10:37:05;25.00;99.90
36556;DHT22;40859;50.560;7.268;2022-08-19T10:39:36;25.00;99.90
36556;DHT22;40859;50.560;7.268;2022-08-19T10:42:06;25.00;99.90
36556;DHT22;40859;50.560;7.268;2022-08-19T10:44:33;25.10;99.90
36556;DHT22;40859;50.560;7.268;2022-08-19T10:47:01;25.10;99.90
36556;DHT22;40859;50.560;7.268;2022-08-19T10:49:26;25.00;99.90
36556;DHT22;40859;50.560;7.268;2022-08-19T10:51:52;25.10;99.90
36556;DHT22;40859;50.560;7.268;2022-08-19T10:54:37;25.00;99.90
36556;DHT22;40859;50.560;7.268;2022-08-19T10:57:21;25.10;99.90
36556;DHT22;40859;50.560;7.268;2022-08-19T10:59:49;25.00;99.90
36556;DHT22;40859;50.560;7.268;2022-08-19T11:02:15;25.10;99.90
36556;DHT22;40859;50.560;7.268;2022-08-19T11:04:41;25.00;99.80
36556;DHT22;40859;50.560;7.268;2022-08-19T11:07:07;25.00;99.90
36556;DHT22;40859;50.560;7.268;2022-08-19T11:09:39;25.10;99.90
36556;DHT22;40859;50.560;7.268;2022-08-19T11:12:05;25.10;99.90
36556;DHT22;40859;50.560;7.268;2022-08-19T11:14:32;25.10;99.80
36556;DHT22;40859;50.560;7.268;2022-08-19T11:16:59;25.10;99.90
36556;DHT22;40859;50.560;7.268;2022-08-19T11:19:25;25.10;99.90
36556;DHT22;40859;50.560;7.268;2022-08-19T11:21:52;25.10;99.90
36556;DHT22;40859;50.560;7.268;2022-08-19T11:24:24;25.10;99.90
36556;DHT22;40859;50.560;7.268;2022-08-19T11:26:53;25.10;99.90
36556;DHT22;40859;50.560;7.268;2022-08-19T11:29:25;25.10;99.90
36556;DHT22;40859;50.560;7.268;2022-08-19T11:31:53;25.10;99.90
36556;DHT22;40859;50.560;7.268;2022-08-19T11:34:23;25.10;99.90
36556;DHT22;40859;50.560;7.268;2022-08-19T11:36:51;25.10;99.90
36556;DHT22;40859;50.560;7.268;2022-08-19T11:39:19;25.10;99.80
36556;DHT22;40859;50.560;7.268;2022-08-19T11:41:46;25.10;99.50
36556;DHT22;40859;50.560;7.268;2022-08-19T11:44:12;25.10;99.10
36556;DHT22;40859;50.560;7.268;2022-08-19T11:46:41;25.10;99.00
36556;DHT22;40859;50.560;7.268;2022-08-19T11:49:11;25.10;98.90
36556;DHT22;40859;50.560;7.268;2022-08-19T11:51:37;25.10;99.00
36556;DHT22;40859;50.560;7.268;2022-08-19T11:54:05;25.20;99.00
36556;DHT22;40859;50.560;7.268;2022-08-19T11:56:31;25.10;99.00
36556;DHT22;40859;50.560;7.268;2022-08-19T11:58:57;25.20;99.10
36556;DHT22;40859;50.560;7.268;2022-08-19T12:01:25;25.20;99.00
36556;DHT22;40859;50.560;7.268;2022-08-19T12:03:53;25.20;99.00
36556;DHT22;40859;50.560;7.268;2022-08-19T12:06:26;25.20;98.80
36556;DHT22;40859;50.560;7.268;2022-08-19T12:08:58;25.20;98.90
36556;DHT22;40859;50.560;7.268;2022-08-19T12:11:25;25.20;98.90
36556;DHT22;40859;50.560;7.268;2022-08-19T12:13:51;25.20;98.90
36556;DHT22;40859;50.560;7.268;2022-08-19T12:16:21;25.20;98.90
36556;DHT22;40859;50.560;7.268;2022-08-19T12:18:48;25.20;98.80
36556;DHT22;40859;50.560;7.268;2022-08-19T12:21:15;25.20;98.80
36556;DHT22;40859;50.560;7.268;2022-08-19T12:23:42;25.20;98.80
36556;DHT22;40859;50.560;7.268;2022-08-19T12:26:10;25.20;98.70
36556;DHT22;40859;50.560;7.268;2022-08-19T12:28:36;25.20;98.40
36556;DHT22;40859;50.560;7.268;2022-08-19T12:31:03;25.20;98.30
36556;DHT22;40859;50.560;7.268;2022-08-19T12:33:29;25.20;98.30
36556;DHT22;40859;50.560;7.268;2022-08-19T12:35:55;25.20;98.30
36556;DHT22;40859;50.560;7.268;2022-08-19T12:38:25;25.20;98.10
36556;DHT22;40859;50.560;7.268;2022-08-19T12:40:51;25.30;98.10
36556;DHT22;40859;50.560;7.268;2022-08-19T12:43:19;25.30;98.00
36556;DHT22;40859;50.560;7.268;2022-08-19T12:45:46;25.30;97.80
36556;DHT22;40859;50.560;7.268;2022-08-19T12:48:12;25.30;97.70
36556;DHT22;40859;50.560;7.268;2022-08-19T12:50:42;25.30;97.70
36556;DHT22;40859;50.560;7.268;2022-08-19T12:53:11;25.30;97.60
36556;DHT22;40859;50.560;7.268;2022-08-19T12:55:37;25.30;97.70
36556;DHT22;40859;50.560;7.268;2022-08-19T12:58:03;25.30;97.60
36556;DHT22;40859;50.560;7.268;2022-08-19T13:00:30;25.30;97.60
36556;DHT22;40859;50.560;7.268;2022-08-19T13:02:59;25.30;97.50
36556;DHT22;40859;50.560;7.268;2022-08-19T13:05:29;25.30;97.50
36556;DHT22;40859;50.560;7.268;2022-08-19T13:07:57;25.30;97.40
36556;DHT22;40859;50.560;7.268;2022-08-19T13:10:28;25.30;97.40
36556;DHT22;40859;50.560;7.268;2022-08-19T13:12:55;25.30;97.40
36556;DHT22;40859;50.560;7.268;2022-08-19T13:15:23;25.30;97.70
36556;DHT22;40859;50.560;7.268;2022-08-19T13:17:50;25.40;97.50
36556;DHT22;40859;50.560;7.268;2022-08-19T13:20:19;25.40;97.40
36556;DHT22;40859;50.560;7.268;2022-08-19T13:22:47;25.40;97.60
36556;DHT22;40859;50.560;7.268;2022-08-19T13:25:14;25.40;97.60
36556;DHT22;40859;50.560;7.268;2022-08-19T13:27:44;25.40;97.50
36556;DHT22;40859;50.560;7.268;2022-08-19T13:30:12;25.40;97.40
36556;DHT22;40859;50.560;7.268;2022-08-19T13:32:57;25.40;97.30
36556;DHT22;40859;50.560;7.268;2022-08-19T13:35:46;25.40;97.40
36556;DHT22;40859;50.560;7.268;2022-08-19T13:38:14;25.40;97.30
36556;DHT22;40859;50.560;7.268;2022-08-19T13:40:40;25.40;97.30
36556;DHT22;40859;50.560;7.268;2022-08-19T13:43:06;25.40;97.10
36556;DHT22;40859;50.560;7.268;2022-08-19T13:45:34;25.40;97.30
36556;DHT22;40859;50.560;7.268;2022-08-19T13:48:03;25.40;97.20
36556;DHT22;40859;50.560;7.268;2022-08-19T13:50:32;25.40;97.30
36556;DHT22;40859;50.560;7.268;2022-08-19T13:53:00;25.50;97.30
36556;DHT22;40859;50.560;7.268;2022-08-19T13:55:27;25.40;97.20
36556;DHT22;40859;50.560;7.268;2022-08-19T13:57:54;25.40;97.10
36556;DHT22;40859;50.560;7.268;2022-08-19T14:00:22;25.50;97.20
36556;DHT22;40859;50.560;7.268;2022-08-19T14:02:52;25.50;97.10
36556;DHT22;40859;50.560;7.268;2022-08-19T14:05:20;25.50;97.00
36556;DHT22;40859;50.560;7.268;2022-08-19T14:07:46;25.50;96.90
36556;DHT22;40859;50.560;7.268;2022-08-19T14:10:14;25.50;96.80
36556;DHT22;40859;50.560;7.268;2022-08-19T14:12:40;25.50;96.80
36556;DHT22;40859;50.560;7.268;2022-08-19T14:15:07;25.50;96.70
36556;DHT22;40859;50.560;7.268;2022-08-19T14:17:34;25.50;96.60
36556;DHT22;40859;50.560;7.268;2022-08-19T14:20:06;25.50;96.50
36556;DHT22;40859;50.560;7.268;2022-08-19T14:22:40;25.50;96.50
36556;DHT22;40859;50.560;7.268;2022-08-19T14:25:08;25.50;96.50
36556;DHT22;40859;50.560;7.268;2022-08-19T14:27:36;25.50;96.40
36556;DHT22;40859;50.560;7.268;2022-08-19T14:30:04;25.50;96.30
36556;DHT22;40859;50.560;7.268;2022-08-19T14:32:33;25.50;96.20
36556;DHT22;40859;50.560;7.268;2022-08-19T14:35:00;25.50;96.10
36556;DHT22;40859;50.560;7.268;2022-08-19T14:37:26;25.50;96.00
36556;DHT22;40859;50.560;7.268;2022-08-19T14:39:52;25.50;95.70
36556;DHT22;40859;50.560;7.268;2022-08-19T14:42:19;25.50;95.80
36556;DHT22;40859;50.560;7.268;2022-08-19T14:44:45;25.50;95.60
36556;DHT22;40859;50.560;7.268;2022-08-19T14:47:11;25.50;95.50
36556;DHT22;40859;50.560;7.268;2022-08-19T14:49:37;25.50;95.40
36556;DHT22;40859;50.560;7.268;2022-08-19T14:52:05;25.50;95.20
36556;DHT22;40859;50.560;7.268;2022-08-19T14:54:31;25.60;94.90
36556;DHT22;40859;50.560;7.268;2022-08-19T14:56:56;25.50;95.00
36556;DHT22;40859;50.560;7.268;2022-08-19T14:59:23;25.50;95.30
36556;DHT22;40859;50.560;7.268;2022-08-19T15:01:49;25.60;94.90
36556;DHT22;40859;50.560;7.268;2022-08-19T15:04:14;25.50;95.10
36556;DHT22;40859;50.560;7.268;2022-08-19T15:06:41;25.60;95.00
36556;DHT22;40859;50.560;7.268;2022-08-19T15:09:08;25.60;95.10
36556;DHT22;40859;50.560;7.268;2022-08-19T15:11:35;25.60;95.10
36556;DHT22;40859;50.560;7.268;2022-08-19T15:14:02;25.60;95.20
36556;DHT22;40859;50.560;7.268;2022-08-19T15:16:30;25.60;95.30
36556;DHT22;40859;50.560;7.268;2022-08-19T15:18:58;25.60;95.30
36556;DHT22;40859;50.560;7.268;2022-08-19T15:21:26;25.60;95.30
36556;DHT22;40859;50.560;7.268;2022-08-19T15:23:53;25.60;95.40
36556;DHT22;40859;50.560;7.268;2022-08-19T15:26:20;25.60;95.40
36556;DHT22;40859;50.560;7.268;2022-08-19T15:28:46;25.70;95.30
36556;DHT22;40859;50.560;7.268;2022-08-19T15:31:19;25.60;95.40
36556;DHT22;40859;50.560;7.268;2022-08-19T15:33:45;25.60;95.40
36556;DHT22;40859;50.560;7.268;2022-08-19T15:36:11;25.60;95.40
36556;DHT22;40859;50.560;7.268;2022-08-19T15:38:37;25.60;95.50
36556;DHT22;40859;50.560;7.268;2022-08-19T15:41:05;25.60;95.50
36556;DHT22;40859;50.560;7.268;2022-08-19T15:44:04;25.60;95.50
36556;DHT22;40859;50.560;7.268;2022-08-19T15:46:34;25.70;95.60
36556;DHT22;40859;50.560;7.268;2022-08-19T15:49:00;25.70;95.60
36556;DHT22;40859;50.560;7.268;2022-08-19T15:51:32;25.70;95.60
36556;DHT22;40859;50.560;7.268;2022-08-19T15:54:02;25.70;95.60
36556;DHT22;40859;50.560;7.268;2022-08-19T15:56:28;25.70;95.70
36556;DHT22;40859;50.560;7.268;2022-08-19T15:59:13;25.70;95.80
36556;DHT22;40859;50.560;7.268;2022-08-19T16:01:57;25.70;95.80
36556;DHT22;40859;50.560;7.268;2022-08-19T16:04:42;25.70;95.80
36556;DHT22;40859;50.560;7.268;2022-08-19T16:07:26;25.70;95.80
36556;DHT22;40859;50.560;7.268;2022-08-19T16:09:52;25.70;95.90
36556;DHT22;40859;50.560;7.268;2022-08-19T16:12:18;25.70;95.90
36556;DHT22;40859;50.560;7.268;2022-08-19T16:14:44;25.70;95.90
36556;DHT22;40859;50.560;7.268;2022-08-19T16:17:10;25.70;95.90
36556;DHT22;40859;50.560;7.268;2022-08-19T16:19:37;25.70;95.90
36556;DHT22;40859;50.560;7.268;2022-08-19T16:22:03;25.70;96.00
36556;DHT22;40859;50.560;7.268;2022-08-19T16:24:30;25.70;96.00
36556;DHT22;40859;50.560;7.268;2022-08-19T16:26:58;25.70;96.00
36556;DHT22;40859;50.560;7.268;2022-08-19T16:29:27;25.70;96.00
36556;DHT22;40859;50.560;7.268;2022-08-19T16:31:54;25.70;96.00
36556;DHT22;40859;50.560;7.268;2022-08-19T16:34:22;25.80;96.10
36556;DHT22;40859;50.560;7.268;2022-08-19T16:36:50;25.80;96.10
36556;DHT22;40859;50.560;7.268;2022-08-19T16:39:16;25.80;96.10
36556;DHT22;40859;50.560;7.268;2022-08-19T16:41:43;25.80;96.10
36556;DHT22;40859;50.560;7.268;2022-08-19T16:44:12;25.80;96.30
36556;DHT22;40859;50.560;7.268;2022-08-19T16:46:39;25.80;96.10
36556;DHT22;40859;50.560;7.268;2022-08-19T16:49:09;25.80;96.10
36556;DHT22;40859;50.560;7.268;2022-08-19T16:51:36;25.80;96.10
36556;DHT22;40859;50.560;7.268;2022-08-19T16:54:03;25.80;96.10
36556;DHT22;40859;50.560;7.268;2022-08-19T16:56:30;25.80;96.10
36556;DHT22;40859;50.560;7.268;2022-08-19T16:58:56;25.80;96.10
36556;DHT22;40859;50.560;7.268;2022-08-19T17:01:25;25.80;96.10
36556;DHT22;40859;50.560;7.268;2022-08-19T17:03:52;25.80;96.10
36556;DHT22;40859;50.560;7.268;2022-08-19T17:06:23;25.80;96.10
36556;DHT22;40859;50.560;7.268;2022-08-19T17:08:56;25.80;96.10
36556;DHT22;40859;50.560;7.268;2022-08-19T17:11:25;25.80;96.10
36556;DHT22;40859;50.560;7.268;2022-08-19T17:13:51;25.80;96.10
36556;DHT22;40859;50.560;7.268;2022-08-19T17:16:20;25.80;96.20
36556;DHT22;40859;50.560;7.268;2022-08-19T17:18:47;25.80;96.50
36556;DHT22;40859;50.560;7.268;2022-08-19T17:21:21;25.80;96.10
36556;DHT22;40859;50.560;7.268;2022-08-19T17:23:48;25.80;96.10
36556;DHT22;40859;50.560;7.268;2022-08-19T17:26:15;25.80;96.10
36556;DHT22;40859;50.560;7.268;2022-08-19T17:28:42;25.80;96.10
36556;DHT22;40859;50.560;7.268;2022-08-19T17:31:07;25.80;96.10
36556;DHT22;40859;50.560;7.268;2022-08-19T17:33:34;25.80;96.10
36556;DHT22;40859;50.560;7.268;2022-08-19T17:36:00;25.80;96.20
36556;DHT22;40859;50.560;7.268;2022-08-19T17:38:29;25.80;96.20
36556;DHT22;40859;50.560;7.268;2022-08-19T17:40:55;25.80;96.10
36556;DHT22;40859;50.560;7.268;2022-08-19T17:43:30;25.80;96.10
36556;DHT22;40859;50.560;7.268;2022-08-19T17:45:58;25.90;96.20
36556;DHT22;40859;50.560;7.268;2022-08-19T17:48:28;25.80;96.20
36556;DHT22;40859;50.560;7.268;2022-08-19T17:50:54;25.80;96.20
36556;DHT22;40859;50.560;7.268;2022-08-19T17:53:20;25.90;96.20
36556;DHT22;40859;50.560;7.268;2022-08-19T17:55:46;25.90;96.20
36556;DHT22;40859;50.560;7.268;2022-08-19T17:58:12;25.90;96.20
36556;DHT22;40859;50.560;7.268;2022-08-19T18:00:38;25.90;96.30
36556;DHT22;40859;50.560;7.268;2022-08-19T18:03:04;25.90;96.30
36556;DHT22;40859;50.560;7.268;2022-08-19T18:05:34;25.80;96.20
36556;DHT22;40859;50.560;7.268;2022-08-19T18:08:00;25.90;96.20
36556;DHT22;40859;50.560;7.268;2022-08-19T18:10:30;25.80;96.20
36556;DHT22;40859;50.560;7.268;2022-08-19T18:12:57;25.90;96.30
36556;DHT22;40859;50.560;7.268;2022-08-19T18:15:24;25.90;96.20
36556;DHT22;40859;50.560;7.268;2022-08-19T18:17:51;25.90;96.30
36556;DHT22;40859;50.560;7.268;2022-08-19T18:20:17;25.90;96.60
36556;DHT22;40859;50.560;7.268;2022-08-19T18:22:46;25.90;96.20
36556;DHT22;40859;50.560;7.268;2022-08-19T18:25:21;25.90;96.70
36556;DHT22;40859;50.560;7.268;2022-08-19T18:27:58;25.90;96.30
36556;DHT22;40859;50.560;7.268;2022-08-19T18:30:27;25.90;96.30
36556;DHT22;40859;50.560;7.268;2022-08-19T18:33:01;25.90;96.30
36556;DHT22;40859;50.560;7.268;2022-08-19T18:35:29;25.90;96.30
36556;DHT22;40859;50.560;7.268;2022-08-19T18:38:00;25.90;96.30
36556;DHT22;40859;50.560;7.268;2022-08-19T18:45:28;25.90;96.30
36556;DHT22;40859;50.560;7.268;2022-08-19T18:48:12;25.90;96.30
36556;DHT22;40859;50.560;7.268;2022-08-19T18:50:57;25.90;96.30
36556;DHT22;40859;50.560;7.268;2022-08-19T18:53:25;25.90;96.30
36556;DHT22;40859;50.560;7.268;2022-08-19T18:55:51;25.90;96.30
36556;DHT22;40859;50.560;7.268;2022-08-19T18:58:18;25.90;96.30
36556;DHT22;40859;50.560;7.268;2022-08-19T19:00:45;25.90;96.30
36556;DHT22;40859;50.560;7.268;2022-08-19T19:03:10;25.90;96.30
36556;DHT22;40859;50.560;7.268;2022-08-19T19:05:36;25.90;96.30
36556;DHT22;40859;50.560;7.268;2022-08-19T19:08:04;25.90;96.40
36556;DHT22;40859;50.560;7.268;2022-08-19T19:10:30;25.90;96.30
36556;DHT22;40859;50.560;7.268;2022-08-19T19:12:57;25.90;96.30
36556;DHT22;40859;50.560;7.268;2022-08-19T19:15:23;25.90;96.40
36556;DHT22;40859;50.560;7.268;2022-08-19T19:17:49;25.90;96.40
36556;DHT22;40859;50.560;7.268;2022-08-19T19:20:15;25.90;96.40
36556;DHT22;40859;50.560;7.268;2022-08-19T19:22:43;25.90;96.40
36556;DHT22;40859;50.560;7.268;2022-08-19T19:25:10;25.90;96.40
36556;DHT22;40859;50.560;7.268;2022-08-19T19:27:36;25.90;96.50
36556;DHT22;40859;50.560;7.268;2022-08-19T19:30:05;25.90;96.30
36556;DHT22;40859;50.560;7.268;2022-08-19T19:32:31;25.90;96.50
36556;DHT22;40859;50.560;7.268;2022-08-19T19:35:04;25.90;96.50
36556;DHT22;40859;50.560;7.268;2022-08-19T19:37:31;25.90;96.50
36556;DHT22;40859;50.560;7.268;2022-08-19T19:39:57;25.90;96.50
36556;DHT22;40859;50.560;7.268;2022-08-19T19:42:23;25.90;97.00
36556;DHT22;40859;50.560;7.268;2022-08-19T19:44:51;25.90;96.80
36556;DHT22;40859;50.560;7.268;2022-08-19T19:47:19;25.90;96.70
36556;DHT22;40859;50.560;7.268;2022-08-19T19:49:49;25.90;96.60
36556;DHT22;40859;50.560;7.268;2022-08-19T19:52:20;25.90;96.60
36556;DHT22;40859;50.560;7.268;2022-08-19T19:54:45;25.90;96.60
36556;DHT22;40859;50.560;7.268;2022-08-19T19:57:11;25.90;96.30
36556;DHT22;40859;50.560;7.268;2022-08-19T19:59:38;25.90;96.70
36556;DHT22;40859;50.560;7.268;2022-08-19T20:02:04;25.90;96.70
36556;DHT22;40859;50.560;7.268;2022-08-19T20:04:30;25.90;96.70
36556;DHT22;40859;50.560;7.268;2022-08-19T20:06:58;25.90;96.70
36556;DHT22;40859;50.560;7.268;2022-08-19T20:09:24;25.90;96.70
36556;DHT22;40859;50.560;7.268;2022-08-19T20:11:53;25.90;96.70
36556;DHT22;40859;50.560;7.268;2022-08-19T20:14:26;25.90;96.70
36556;DHT22;40859;50.560;7.268;2022-08-19T20:16:53;25.90;96.80
36556;DHT22;40859;50.560;7.268;2022-08-19T20:19:22;25.90;96.80
36556;DHT22;40859;50.560;7.268;2022-08-19T20:21:48;25.90;96.80
36556;DHT22;40859;50.560;7.268;2022-08-19T20:24:17;25.90;96.80
36556;DHT22;40859;50.560;7.268;2022-08-19T20:26:44;25.90;96.80
36556;DHT22;40859;50.560;7.268;2022-08-19T20:29:13;25.90;96.90
36556;DHT22;40859;50.560;7.268;2022-08-19T20:31:41;25.90;97.40
36556;DHT22;40859;50.560;7.268;2022-08-19T20:34:07;25.90;97.40
36556;DHT22;40859;50.560;7.268;2022-08-19T20:36:33;25.90;97.40
36556;DHT22;40859;50.560;7.268;2022-08-19T20:39:02;25.90;97.30
36556;DHT22;40859;50.560;7.268;2022-08-19T20:41:28;25.90;97.20
36556;DHT22;40859;50.560;7.268;2022-08-19T20:43:55;25.90;97.20
36556;DHT22;40859;50.560;7.268;2022-08-19T20:46:21;25.90;97.90
36556;DHT22;40859;50.560;7.268;2022-08-19T20:48:47;25.90;97.60
36556;DHT22;40859;50.560;7.268;2022-08-19T20:51:13;25.90;97.40
36556;DHT22;40859;50.560;7.268;2022-08-19T20:53:40;25.90;97.40
36556;DHT22;40859;50.560;7.268;2022-08-19T20:56:07;25.90;97.30
36556;DHT22;40859;50.560;7.268;2022-08-19T20:58:33;25.90;97.30